sensor_id;sensor_type;location;lat;lon;timestamp;temperature;humidity
1429;DHT22;708;51.442;7.016;2022-07-11T00:02:11;19.90;1.00
1429;DHT22;708;51.442;7.016;2022-07-11T00:04:39;19.90;1.00
1429;DHT22;708;51.442;7.016;2022-07-11T00:07:06;19.80;38.70
1429;DHT22;708;51.442;7.016;2022-07-11T00:09:33;19.70;91.60
1429;DHT22;708;51.442;7.016;2022-07-11T00:12:00;19.70;99.90
1429;DHT22;708;51.442;7.016;2022-07-11T00:14:28;19.60;99.90
1429;DHT22;708;51.442;7.016;2022-07-11T00:16:55;19.50;99.90
1429;DHT22;708;51.442;7.016;2022-07-11T00:19:23;19.50;99.90
1429;DHT22;708;51.442;7.016;2022-07-11T00:21:51;19.50;99.90
1429;DHT22;708;51.442;7.016;2022-07-11T00:24:18;19.50;99.90
1429;DHT22;708;51.442;7.016;2022-07-11T00:26:45;19.60;99.90
1429;DHT22;708;51.442;7.016;2022-07-11T00:29:13;19.60;99.90
1429;DHT22;708;51.442;7.016;2022-07-11T00:31:40;19.60;99.90
1429;DHT22;708;51.442;7.016;2022-07-11T00:34:07;19.60;99.90
1429;DHT22;708;51.442;7.016;2022-07-11T00:36:35;19.50;99.90
1429;DHT22;708;51.442;7.016;2022-07-11T00:39:03;19.50;99.90
1429;DHT22;708;51.442;7.016;2022-07-11T00:41:31;19.40;99.90
1429;DHT22;708;51.442;7.016;2022-07-11T00:43:59;19.40;99.90
1429;DHT22;708;51.442;7.016;2022-07-11T00:46:27;19.30;99.90
1429;DHT22;708;51.442;7.016;2022-07-11T00:48:55;19.30;99.90
1429;DHT22;708;51.442;7.016;2022-07-11T00:51:23;19.20;99.90
1429;DHT22;708;51.442;7.016;2022-07-11T00:53:53;19.20;99.90
1429;DHT22;708;51.442;7.016;2022-07-11T00:56:21;19.10;99.90
1429;DHT22;708;51.442;7.016;2022-07-11T00:58:49;19.10;99.90
1429;DHT22;708;51.442;7.016;2022-07-11T01:01:16;19.00;1.00
1429;DHT22;708;51.442;7.016;2022-07-11T01:03:43;19.00;1.00
1429;DHT22;708;51.442;7.016;2022-07-11T01:06:10;19.00;1.00
1429;DHT22;708;51.442;7.016;2022-07-11T01:08:38;19.00;1.00
1429;DHT22;708;51.442;7.016;2022-07-11T01:11:08;19.00;1.00
1429;DHT22;708;51.442;7.016;2022-07-11T01:13:38;19.00;1.00
1429;DHT22;708;51.442;7.016;2022-07-11T01:16:13;19.00;1.00
1429;DHT22;708;51.442;7.016;2022-07-11T01:18:42;19.00;1.00
1429;DHT22;708;51.442;7.016;2022-07-11T01:21:22;19.00;1.00
1429;DHT22;708;51.442;7.016;2022-07-11T01:23:51;19.00;1.00
1429;DHT22;708;51.442;7.016;2022-07-11T01:26:20;18.90;1.00
1429;DHT22;708;51.442;7.016;2022-07-11T01:28:48;18.90;1.00
1429;DHT22;708;51.442;7.016;2022-07-11T01:31:15;18.90;1.00
1429;DHT22;708;51.442;7.016;2022-07-11T01:33:42;18.90;1.00
1429;DHT22;708;51.442;7.016;2022-07-11T01:36:09;18.80;1.00
1429;DHT22;708;51.442;7.016;2022-07-11T01:38:37;18.70;1.00
1429;DHT22;708;51.442;7.016;2022-07-11T01:41:06;18.70;1.00
1429;DHT22;708;51.442;7.016;2022-07-11T01:43:33;18.70;1.00
1429;DHT22;708;51.442;7.016;2022-07-11T01:46:00;18.60;1.00
1429;DHT22;708;51.442;7.016;2022-07-11T01:48:27;18.50;1.00
1429;DHT22;708;51.442;7.016;2022-07-11T01:50:54;18.40;1.00
1429;DHT22;708;51.442;7.016;2022-07-11T01:53:21;18.40;1.00
1429;DHT22;708;51.442;7.016;2022-07-11T01:55:49;18.30;1.00
1429;DHT22;708;51.442;7.016;2022-07-11T01:58:17;18.20;1.00
1429;DHT22;708;51.442;7.016;2022-07-11T02:00:44;18.20;1.00
1429;DHT22;708;51.442;7.016;2022-07-11T02:03:11;18.20;1.00
1429;DHT22;708;51.442;7.016;2022-07-11T02:05:38;18.10;1.00
1429;DHT22;708;51.442;7.016;2022-07-11T02:08:06;18.00;1.00
1429;DHT22;708;51.442;7.016;2022-07-11T02:10:41;18.00;1.00
1429;DHT22;708;51.442;7.016;2022-07-11T02:13:09;18.10;1.00
1429;DHT22;708;51.442;7.016;2022-07-11T02:15:38;18.10;1.00
1429;DHT22;708;51.442;7.016;2022-07-11T02:18:06;18.10;1.00
1429;DHT22;708;51.442;7.016;2022-07-11T02:20:34;18.10;1.00
1429;DHT22;708;51.442;7.016;2022-07-11T02:23:01;18.20;1.00
1429;DHT22;708;51.442;7.016;2022-07-11T02:25:29;18.20;1.00
1429;DHT22;708;51.442;7.016;2022-07-11T02:27:56;18.30;1.00
1429;DHT22;708;51.442;7.016;2022-07-11T02:30:24;18.40;1.00
1429;DHT22;708;51.442;7.016;2022-07-11T02:32:52;18.40;1.00
1429;DHT22;708;51.442;7.016;2022-07-11T02:35:19;18.50;1.00
1429;DHT22;708;51.442;7.016;2022-07-11T02:37:46;18.60;1.00
1429;DHT22;708;51.442;7.016;2022-07-11T02:40:14;18.60;1.00
1429;DHT22;708;51.442;7.016;2022-07-11T02:42:41;18.70;1.00
1429;DHT22;708;51.442;7.016;2022-07-11T02:45:08;18.70;1.00
1429;DHT22;708;51.442;7.016;2022-07-11T02:47:36;18.70;1.00
1429;DHT22;708;51.442;7.016;2022-07-11T02:50:07;18.70;1.00
1429;DHT22;708;51.442;7.016;2022-07-11T02:52:34;18.70;1.00
1429;DHT22;708;51.442;7.016;2022-07-11T02:55:01;18.70;1.00
1429;DHT22;708;51.442;7.016;2022-07-11T02:57:28;18.70;1.00
1429;DHT22;708;51.442;7.016;2022-07-11T02:59:54;18.70;1.00
1429;DHT22;708;51.442;7.016;2022-07-11T03:02:21;18.70;1.00
1429;DHT22;708;51.442;7.016;2022-07-11T03:04:48;18.70;1.00
1429;DHT22;708;51.442;7.016;2022-07-11T03:07:16;18.80;1.00
1429;DHT22;708;51.442;7.016;2022-07-11T03:09:43;18.80;1.00
1429;DHT22;708;51.442;7.016;2022-07-11T03:12:10;18.80;1.00
1429;DHT22;708;51.442;7.016;2022-07-11T03:14:37;18.80;1.00
1429;DHT22;708;51.442;7.016;2022-07-11T03:17:04;18.70;1.00
1429;DHT22;708;51.442;7.016;2022-07-11T03:19:31;18.70;1.00
1429;DHT22;708;51.442;7.016;2022-07-11T03:21:58;18.70;1.00
1429;DHT22;708;51.442;7.016;2022-07-11T03:24:26;18.70;1.00
1429;DHT22;708;51.442;7.016;2022-07-11T03:26:53;18.70;1.00
1429;DHT22;708;51.442;7.016;2022-07-11T03:29:20;18.70;1.00
1429;DHT22;708;51.442;7.016;2022-07-11T03:31:46;18.70;1.00
1429;DHT22;708;51.442;7.016;2022-07-11T03:34:17;18.70;1.00
1429;DHT22;708;51.442;7.016;2022-07-11T03:36:44;18.80;1.00
1429;DHT22;708;51.442;7.016;2022-07-11T03:39:11;18.80;1.00
1429;DHT22;708;51.442;7.016;2022-07-11T03:41:40;18.80;1.00
1429;DHT22;708;51.442;7.016;2022-07-11T03:44:07;18.80;1.00
1429;DHT22;708;51.442;7.016;2022-07-11T03:46:33;18.80;1.00
1429;DHT22;708;51.442;7.016;2022-07-11T03:49:00;18.80;1.00
1429;DHT22;708;51.442;7.016;2022-07-11T03:51:27;18.80;1.00
1429;DHT22;708;51.442;7.016;2022-07-11T03:53:54;18.80;1.00
1429;DHT22;708;51.442;7.016;2022-07-11T03:56:21;18.70;1.00
1429;DHT22;708;51.442;7.016;2022-07-11T03:58:50;18.70;1.00
1429;DHT22;708;51.442;7.016;2022-07-11T04:01:17;18.70;1.00
1429;DHT22;708;51.442;7.016;2022-07-11T04:03:45;18.60;1.00
1429;DHT22;708;51.442;7.016;2022-07-11T04:06:12;18.60;1.00
1429;DHT22;708;51.442;7.016;2022-07-11T04:08:39;18.70;1.00
1429;DHT22;708;51.442;7.016;2022-07-11T04:11:06;18.70;1.00
1429;DHT22;708;51.442;7.016;2022-07-11T04:13:32;18.70;1.00
1429;DHT22;708;51.442;7.016;2022-07-11T04:16:01;18.80;1.00
1429;DHT22;708;51.442;7.016;2022-07-11T04:18:28;18.90;1.00
1429;DHT22;708;51.442;7.016;2022-07-11T04:20:54;18.90;1.00
1429;DHT22;708;51.442;7.016;2022-07-11T04:23:21;18.90;99.90
1429;DHT22;708;51.442;7.016;2022-07-11T04:25:48;18.90;99.90
1429;DHT22;708;51.442;7.016;2022-07-11T04:28:15;18.90;99.90
1429;DHT22;708;51.442;7.016;2022-07-11T04:30:42;18.90;1.00
1429;DHT22;708;51.442;7.016;2022-07-11T04:33:10;19.00;99.90
1429;DHT22;708;51.442;7.016;2022-07-11T04:35:37;19.00;99.90
1429;DHT22;708;51.442;7.016;2022-07-11T04:38:03;19.10;99.90
1429;DHT22;708;51.442;7.016;2022-07-11T04:40:30;19.10;99.90
1429;DHT22;708;51.442;7.016;2022-07-11T04:42:58;19.10;99.90
1429;DHT22;708;51.442;7.016;2022-07-11T04:45:24;19.10;99.90
1429;DHT22;708;51.442;7.016;2022-07-11T04:47:51;19.10;99.90
1429;DHT22;708;51.442;7.016;2022-07-11T04:50:19;19.20;99.90
1429;DHT22;708;51.442;7.016;2022-07-11T04:52:46;19.30;99.90
1429;DHT22;708;51.442;7.016;2022-07-11T04:55:13;19.30;99.90
1429;DHT22;708;51.442;7.016;2022-07-11T04:57:40;19.30;99.90
1429;DHT22;708;51.442;7.016;2022-07-11T05:00:07;19.40;99.90
1429;DHT22;708;51.442;7.016;2022-07-11T05:02:34;19.40;99.90
1429;DHT22;708;51.442;7.016;2022-07-11T05:05:01;19.50;99.90
1429;DHT22;708;51.442;7.016;2022-07-11T05:07:29;19.40;99.90
1429;DHT22;708;51.442;7.016;2022-07-11T05:09:56;19.30;99.90
1429;DHT22;708;51.442;7.016;2022-07-11T05:12:23;19.30;99.90
1429;DHT22;708;51.442;7.016;2022-07-11T05:14:50;19.40;99.90
1429;DHT22;708;51.442;7.016;2022-07-11T05:17:17;19.30;99.90
1429;DHT22;708;51.442;7.016;2022-07-11T05:19:45;19.30;99.90
1429;DHT22;708;51.442;7.016;2022-07-11T05:22:12;19.20;99.90
1429;DHT22;708;51.442;7.016;2022-07-11T05:24:40;19.20;99.90
1429;DHT22;708;51.442;7.016;2022-07-11T05:27:07;19.30;99.90
1429;DHT22;708;51.442;7.016;2022-07-11T05:29:33;19.30;99.90
1429;DHT22;708;51.442;7.016;2022-07-11T05:32:00;19.30;99.90
1429;DHT22;708;51.442;7.016;2022-07-11T05:34:27;19.30;99.90
1429;DHT22;708;51.442;7.016;2022-07-11T05:36:55;19.40;99.90
1429;DHT22;708;51.442;7.016;2022-07-11T05:39:22;19.40;99.90
1429;DHT22;708;51.442;7.016;2022-07-11T05:41:50;19.50;99.90
1429;DHT22;708;51.442;7.016;2022-07-11T05:44:17;19.60;61.30
1429;DHT22;708;51.442;7.016;2022-07-11T05:46:44;19.70;17.60
1429;DHT22;708;51.442;7.016;2022-07-11T05:49:11;19.70;1.00
1429;DHT22;708;51.442;7.016;2022-07-11T05:51:39;19.80;1.00
1429;DHT22;708;51.442;7.016;2022-07-11T05:54:06;19.80;1.00
1429;DHT22;708;51.442;7.016;2022-07-11T05:56:33;20.00;1.00
1429;DHT22;708;51.442;7.016;2022-07-11T05:59:01;20.00;1.00
1429;DHT22;708;51.442;7.016;2022-07-11T06:01:28;20.10;99.90
1429;DHT22;708;51.442;7.016;2022-07-11T06:03:57;20.10;99.90
1429;DHT22;708;51.442;7.016;2022-07-11T06:06:24;20.20;99.90
1429;DHT22;708;51.442;7.016;2022-07-11T06:08:50;20.30;99.90
1429;DHT22;708;51.442;7.016;2022-07-11T06:11:19;20.40;99.90
1429;DHT22;708;51.442;7.016;2022-07-11T06:13:46;20.50;67.20
1429;DHT22;708;51.442;7.016;2022-07-11T06:16:16;20.60;1.00
1429;DHT22;708;51.442;7.016;2022-07-11T06:18:43;20.70;1.00
1429;DHT22;708;51.442;7.016;2022-07-11T06:21:11;20.90;99.90
1429;DHT22;708;51.442;7.016;2022-07-11T06:23:38;20.90;99.90
1429;DHT22;708;51.442;7.016;2022-07-11T06:26:05;21.00;37.60
1429;DHT22;708;51.442;7.016;2022-07-11T06:28:36;21.10;1.00
1429;DHT22;708;51.442;7.016;2022-07-11T06:31:06;21.20;1.00
1429;DHT22;708;51.442;7.016;2022-07-11T06:33:34;21.30;1.00
1429;DHT22;708;51.442;7.016;2022-07-11T06:36:01;21.30;1.00
1429;DHT22;708;51.442;7.016;2022-07-11T06:38:28;21.20;1.00
1429;DHT22;708;51.442;7.016;2022-07-11T06:40:56;21.10;1.00
1429;DHT22;708;51.442;7.016;2022-07-11T06:43:23;21.00;1.00
1429;DHT22;708;51.442;7.016;2022-07-11T06:45:50;21.00;78.00
1429;DHT22;708;51.442;7.016;2022-07-11T06:48:17;21.10;99.90
1429;DHT22;708;51.442;7.016;2022-07-11T06:50:47;21.20;39.50
1429;DHT22;708;51.442;7.016;2022-07-11T06:53:14;21.30;1.00
1429;DHT22;708;51.442;7.016;2022-07-11T06:55:41;21.40;1.00
1429;DHT22;708;51.442;7.016;2022-07-11T06:58:08;21.40;1.00
1429;DHT22;708;51.442;7.016;2022-07-11T07:00:35;21.40;1.00
1429;DHT22;708;51.442;7.016;2022-07-11T07:03:02;21.40;99.90
1429;DHT22;708;51.442;7.016;2022-07-11T07:05:28;21.50;1.00
1429;DHT22;708;51.442;7.016;2022-07-11T07:07:57;21.50;1.00
1429;DHT22;708;51.442;7.016;2022-07-11T07:10:23;21.40;1.00
1429;DHT22;708;51.442;7.016;2022-07-11T07:12:51;21.50;1.00
1429;DHT22;708;51.442;7.016;2022-07-11T07:15:18;21.40;1.00
1429;DHT22;708;51.442;7.016;2022-07-11T07:17:44;21.40;55.20
1429;DHT22;708;51.442;7.016;2022-07-11T07:20:11;21.50;1.00
1429;DHT22;708;51.442;7.016;2022-07-11T07:22:38;21.50;1.00
1429;DHT22;708;51.442;7.016;2022-07-11T07:25:08;21.30;1.00
1429;DHT22;708;51.442;7.016;2022-07-11T07:27:36;21.20;99.90
1429;DHT22;708;51.442;7.016;2022-07-11T07:30:03;21.20;99.90
1429;DHT22;708;51.442;7.016;2022-07-11T07:32:30;21.20;99.90
1429;DHT22;708;51.442;7.016;2022-07-11T07:34:57;21.10;1.00
1429;DHT22;708;51.442;7.016;2022-07-11T07:37:24;21.10;1.00
1429;DHT22;708;51.442;7.016;2022-07-11T07:39:51;21.10;1.00
1429;DHT22;708;51.442;7.016;2022-07-11T07:42:19;21.10;1.00
1429;DHT22;708;51.442;7.016;2022-07-11T07:44:46;21.20;1.00
1429;DHT22;708;51.442;7.016;2022-07-11T07:47:13;21.40;1.00
1429;DHT22;708;51.442;7.016;2022-07-11T07:49:39;21.40;1.00
1429;DHT22;708;51.442;7.016;2022-07-11T07:52:06;21.50;1.00
1429;DHT22;708;51.442;7.016;2022-07-11T07:54:33;21.50;99.90
1429;DHT22;708;51.442;7.016;2022-07-11T07:57:01;21.50;99.90
1429;DHT22;708;51.442;7.016;2022-07-11T07:59:29;21.70;99.90
1429;DHT22;708;51.442;7.016;2022-07-11T08:01:56;21.90;11.80
1429;DHT22;708;51.442;7.016;2022-07-11T08:04:21;22.00;1.00
1429;DHT22;708;51.442;7.016;2022-07-11T08:06:48;21.90;1.00
1429;DHT22;708;51.442;7.016;2022-07-11T08:09:15;21.80;99.90
1429;DHT22;708;51.442;7.016;2022-07-11T08:11:42;21.70;1.00
1429;DHT22;708;51.442;7.016;2022-07-11T08:14:09;21.80;99.90
1429;DHT22;708;51.442;7.016;2022-07-11T08:16:38;22.10;99.90
1429;DHT22;708;51.442;7.016;2022-07-11T08:19:06;22.40;99.90
1429;DHT22;708;51.442;7.016;2022-07-11T08:21:34;23.00;1.00
1429;DHT22;708;51.442;7.016;2022-07-11T08:24:01;23.60;99.90
1429;DHT22;708;51.442;7.016;2022-07-11T08:26:29;24.10;99.90
1429;DHT22;708;51.442;7.016;2022-07-11T08:28:55;24.60;99.90
1429;DHT22;708;51.442;7.016;2022-07-11T08:31:22;25.00;99.90
1429;DHT22;708;51.442;7.016;2022-07-11T08:33:51;25.30;1.00
1429;DHT22;708;51.442;7.016;2022-07-11T08:36:18;25.70;99.90
1429;DHT22;708;51.442;7.016;2022-07-11T08:38:45;25.60;99.90
1429;DHT22;708;51.442;7.016;2022-07-11T08:41:13;25.60;99.90
1429;DHT22;708;51.442;7.016;2022-07-11T08:43:41;25.40;99.90
1429;DHT22;708;51.442;7.016;2022-07-11T08:46:10;24.90;99.90
1429;DHT22;708;51.442;7.016;2022-07-11T08:48:38;24.70;99.90
1429;DHT22;708;51.442;7.016;2022-07-11T08:51:07;24.30;99.90
1429;DHT22;708;51.442;7.016;2022-07-11T08:53:39;24.10;1.00
1429;DHT22;708;51.442;7.016;2022-07-11T08:56:09;23.70;1.00
1429;DHT22;708;51.442;7.016;2022-07-11T08:58:42;23.30;99.90
1429;DHT22;708;51.442;7.016;2022-07-11T09:01:10;22.80;1.00
1429;DHT22;708;51.442;7.016;2022-07-11T09:03:37;22.40;1.00
1429;DHT22;708;51.442;7.016;2022-07-11T09:06:04;22.20;1.00
1429;DHT22;708;51.442;7.016;2022-07-11T09:08:35;21.90;99.90
1429;DHT22;708;51.442;7.016;2022-07-11T09:11:02;21.70;99.90
1429;DHT22;708;51.442;7.016;2022-07-11T09:13:29;21.60;1.00
1429;DHT22;708;51.442;7.016;2022-07-11T09:16:02;21.50;99.90
1429;DHT22;708;51.442;7.016;2022-07-11T09:18:30;21.50;1.00
1429;DHT22;708;51.442;7.016;2022-07-11T09:20:59;21.70;99.90
1429;DHT22;708;51.442;7.016;2022-07-11T09:23:46;22.10;55.10
1429;DHT22;708;51.442;7.016;2022-07-11T09:26:30;22.70;33.60
1429;DHT22;708;51.442;7.016;2022-07-11T09:28:59;23.50;1.00
1429;DHT22;708;51.442;7.016;2022-07-11T09:31:27;24.40;99.90
1429;DHT22;708;51.442;7.016;2022-07-11T09:33:59;25.20;1.00
1429;DHT22;708;51.442;7.016;2022-07-11T09:36:43;25.60;99.90
1429;DHT22;708;51.442;7.016;2022-07-11T09:39:13;25.80;1.00
1429;DHT22;708;51.442;7.016;2022-07-11T09:41:41;25.70;99.90
1429;DHT22;708;51.442;7.016;2022-07-11T09:44:16;25.40;99.90
1429;DHT22;708;51.442;7.016;2022-07-11T09:46:44;25.20;99.90
1429;DHT22;708;51.442;7.016;2022-07-11T09:49:12;25.10;99.90
1429;DHT22;708;51.442;7.016;2022-07-11T09:51:39;24.90;99.90
1429;DHT22;708;51.442;7.016;2022-07-11T09:54:08;24.70;99.90
1429;DHT22;708;51.442;7.016;2022-07-11T09:56:39;24.60;99.90
1429;DHT22;708;51.442;7.016;2022-07-11T09:59:07;24.40;99.90
1429;DHT22;708;51.442;7.016;2022-07-11T10:01:34;24.50;99.90
1429;DHT22;708;51.442;7.016;2022-07-11T10:04:01;24.60;99.90
1429;DHT22;708;51.442;7.016;2022-07-11T10:06:28;24.80;99.90
1429;DHT22;708;51.442;7.016;2022-07-11T10:08:55;25.00;99.90
1429;DHT22;708;51.442;7.016;2022-07-11T10:11:23;25.10;99.90
1429;DHT22;708;51.442;7.016;2022-07-11T10:13:51;25.00;99.90
1429;DHT22;708;51.442;7.016;2022-07-11T10:16:24;24.80;99.90
1429;DHT22;708;51.442;7.016;2022-07-11T10:18:58;24.80;99.90
1429;DHT22;708;51.442;7.016;2022-07-11T10:21:37;24.60;99.90
1429;DHT22;708;51.442;7.016;2022-07-11T10:24:17;24.50;99.90
1429;DHT22;708;51.442;7.016;2022-07-11T10:26:58;24.10;99.90
1429;DHT22;708;51.442;7.016;2022-07-11T10:29:31;23.90;1.00
1429;DHT22;708;51.442;7.016;2022-07-11T10:32:10;23.80;1.00
1429;DHT22;708;51.442;7.016;2022-07-11T10:34:42;23.60;1.00
1429;DHT22;708;51.442;7.016;2022-07-11T10:37:10;23.50;1.00
1429;DHT22;708;51.442;7.016;2022-07-11T10:39:38;23.60;1.00
1429;DHT22;708;51.442;7.016;2022-07-11T10:42:19;23.50;1.00
1429;DHT22;708;51.442;7.016;2022-07-11T10:44:50;23.70;1.00
1429;DHT22;708;51.442;7.016;2022-07-11T10:47:34;23.90;1.00
1429;DHT22;708;51.442;7.016;2022-07-11T10:50:10;23.90;1.00
1429;DHT22;708;51.442;7.016;2022-07-11T10:52:40;24.10;1.00
1429;DHT22;708;51.442;7.016;2022-07-11T10:55:21;24.30;1.00
1429;DHT22;708;51.442;7.016;2022-07-11T10:58:02;24.40;99.90
1429;DHT22;708;51.442;7.016;2022-07-11T11:00:33;24.30;99.90
1429;DHT22;708;51.442;7.016;2022-07-11T11:03:02;24.30;99.90
1429;DHT22;708;51.442;7.016;2022-07-11T11:05:44;24.30;99.90
1429;DHT22;708;51.442;7.016;2022-07-11T11:08:42;24.30;99.90
1429;DHT22;708;51.442;7.016;2022-07-11T11:11:33;24.40;99.90
1429;DHT22;708;51.442;7.016;2022-07-11T11:14:23;24.40;99.90
1429;DHT22;708;51.442;7.016;2022-07-11T11:16:53;24.60;99.90
1429;DHT22;708;51.442;7.016;2022-07-11T11:19:54;24.60;99.90
1429;DHT22;708;51.442;7.016;2022-07-11T11:22:23;24.60;99.90
1429;DHT22;708;51.442;7.016;2022-07-11T11:24:53;24.80;99.90
1429;DHT22;708;51.442;7.016;2022-07-11T11:27:21;24.80;99.90
1429;DHT22;708;51.442;7.016;2022-07-11T11:29:52;24.80;99.90
1429;DHT22;708;51.442;7.016;2022-07-11T11:32:21;24.70;99.90
1429;DHT22;708;51.442;7.016;2022-07-11T11:34:49;24.60;99.90
1429;DHT22;708;51.442;7.016;2022-07-11T11:37:17;24.40;99.90
1429;DHT22;708;51.442;7.016;2022-07-11T11:39:44;24.40;99.90
1429;DHT22;708;51.442;7.016;2022-07-11T11:42:34;24.40;99.90
1429;DHT22;708;51.442;7.016;2022-07-11T11:45:04;24.50;99.90
1429;DHT22;708;51.442;7.016;2022-07-11T11:47:46;24.50;99.90
1429;DHT22;708;51.442;7.016;2022-07-11T11:50:14;24.30;99.90
1429;DHT22;708;51.442;7.016;2022-07-11T11:52:41;24.20;99.90
1429;DHT22;708;51.442;7.016;2022-07-11T11:55:08;24.20;1.00
1429;DHT22;708;51.442;7.016;2022-07-11T11:57:38;24.20;1.00
1429;DHT22;708;51.442;7.016;2022-07-11T12:00:20;24.20;1.00
1429;DHT22;708;51.442;7.016;2022-07-11T12:02:50;24.30;99.90
1429;DHT22;708;51.442;7.016;2022-07-11T12:05:17;24.30;99.90
1429;DHT22;708;51.442;7.016;2022-07-11T12:07:44;24.30;99.90
1429;DHT22;708;51.442;7.016;2022-07-11T12:10:11;24.50;99.90
1429;DHT22;708;51.442;7.016;2022-07-11T12:12:42;24.80;99.90
1429;DHT22;708;51.442;7.016;2022-07-11T12:15:27;25.10;99.90
1429;DHT22;708;51.442;7.016;2022-07-11T12:18:03;25.40;99.90
1429;DHT22;708;51.442;7.016;2022-07-11T12:20:36;25.70;99.90
1429;DHT22;708;51.442;7.016;2022-07-11T12:23:05;25.80;99.90
1429;DHT22;708;51.442;7.016;2022-07-11T12:25:32;25.60;99.90
1429;DHT22;708;51.442;7.016;2022-07-11T12:27:59;25.60;99.90
1429;DHT22;708;51.442;7.016;2022-07-11T12:30:26;25.60;99.90
1429;DHT22;708;51.442;7.016;2022-07-11T12:33:05;25.60;99.90
1429;DHT22;708;51.442;7.016;2022-07-11T12:35:35;25.40;99.90
1429;DHT22;708;51.442;7.016;2022-07-11T12:38:03;25.40;99.90
1429;DHT22;708;51.442;7.016;2022-07-11T12:40:31;25.30;99.90
1429;DHT22;708;51.442;7.016;2022-07-11T12:42:58;25.20;99.90
1429;DHT22;708;51.442;7.016;2022-07-11T12:45:25;25.10;99.90
1429;DHT22;708;51.442;7.016;2022-07-11T12:47:51;25.10;99.90
1429;DHT22;708;51.442;7.016;2022-07-11T12:50:24;25.20;99.90
1429;DHT22;708;51.442;7.016;2022-07-11T12:52:53;25.20;99.90
1429;DHT22;708;51.442;7.016;2022-07-11T12:55:22;25.30;99.90
1429;DHT22;708;51.442;7.016;2022-07-11T12:58:06;25.50;99.90
1429;DHT22;708;51.442;7.016;2022-07-11T13:00:35;25.90;99.90
1429;DHT22;708;51.442;7.016;2022-07-11T13:03:03;26.20;99.90
1429;DHT22;708;51.442;7.016;2022-07-11T13:05:46;26.40;99.90
1429;DHT22;708;51.442;7.016;2022-07-11T13:08:22;26.60;99.90
1429;DHT22;708;51.442;7.016;2022-07-11T13:11:07;26.90;99.90
1429;DHT22;708;51.442;7.016;2022-07-11T13:13:34;27.20;99.90
1429;DHT22;708;51.442;7.016;2022-07-11T13:16:01;27.40;99.90
1429;DHT22;708;51.442;7.016;2022-07-11T13:18:30;27.50;99.90
1429;DHT22;708;51.442;7.016;2022-07-11T13:20:58;27.40;99.90
1429;DHT22;708;51.442;7.016;2022-07-11T13:23:26;27.30;99.90
1429;DHT22;708;51.442;7.016;2022-07-11T13:25:53;27.00;99.90
1429;DHT22;708;51.442;7.016;2022-07-11T13:28:20;26.90;99.90
1429;DHT22;708;51.442;7.016;2022-07-11T13:30:48;26.60;99.90
1429;DHT22;708;51.442;7.016;2022-07-11T13:33:15;26.30;99.90
1429;DHT22;708;51.442;7.016;2022-07-11T13:35:42;26.20;99.90
1429;DHT22;708;51.442;7.016;2022-07-11T13:38:10;26.00;99.90
1429;DHT22;708;51.442;7.016;2022-07-11T13:40:38;25.80;99.90
1429;DHT22;708;51.442;7.016;2022-07-11T13:43:04;25.70;99.90
1429;DHT22;708;51.442;7.016;2022-07-11T13:45:31;25.50;99.90
1429;DHT22;708;51.442;7.016;2022-07-11T13:47:58;25.50;99.90
1429;DHT22;708;51.442;7.016;2022-07-11T13:50:26;25.50;99.90
1429;DHT22;708;51.442;7.016;2022-07-11T13:52:53;25.40;99.90
1429;DHT22;708;51.442;7.016;2022-07-11T13:55:23;25.30;99.90
1429;DHT22;708;51.442;7.016;2022-07-11T13:57:54;25.20;99.90
1429;DHT22;708;51.442;7.016;2022-07-11T14:00:22;25.10;99.90
1429;DHT22;708;51.442;7.016;2022-07-11T14:02:50;25.00;99.90
1429;DHT22;708;51.442;7.016;2022-07-11T14:05:17;25.00;99.90
1429;DHT22;708;51.442;7.016;2022-07-11T14:07:45;25.00;99.90
1429;DHT22;708;51.442;7.016;2022-07-11T14:10:12;25.00;99.90
1429;DHT22;708;51.442;7.016;2022-07-11T14:12:40;25.00;99.90
1429;DHT22;708;51.442;7.016;2022-07-11T14:15:08;25.10;99.90
1429;DHT22;708;51.442;7.016;2022-07-11T14:17:36;25.10;99.90
1429;DHT22;708;51.442;7.016;2022-07-11T14:20:03;25.10;99.90
1429;DHT22;708;51.442;7.016;2022-07-11T14:22:30;25.20;99.90
1429;DHT22;708;51.442;7.016;2022-07-11T14:24:57;25.20;99.90
1429;DHT22;708;51.442;7.016;2022-07-11T14:27:24;25.30;99.90
1429;DHT22;708;51.442;7.016;2022-07-11T14:29:52;25.40;99.90
1429;DHT22;708;51.442;7.016;2022-07-11T14:32:19;25.40;99.90
1429;DHT22;708;51.442;7.016;2022-07-11T14:34:47;25.50;99.90
1429;DHT22;708;51.442;7.016;2022-07-11T14:37:14;25.50;99.90
1429;DHT22;708;51.442;7.016;2022-07-11T14:39:41;25.50;99.90
1429;DHT22;708;51.442;7.016;2022-07-11T14:42:08;25.40;99.90
1429;DHT22;708;51.442;7.016;2022-07-11T14:44:35;25.50;99.90
1429;DHT22;708;51.442;7.016;2022-07-11T14:47:03;25.40;99.90
1429;DHT22;708;51.442;7.016;2022-07-11T14:49:30;25.40;99.90
1429;DHT22;708;51.442;7.016;2022-07-11T14:51:58;25.40;99.90
1429;DHT22;708;51.442;7.016;2022-07-11T14:54:25;25.50;99.90
1429;DHT22;708;51.442;7.016;2022-07-11T14:56:52;25.80;99.90
1429;DHT22;708;51.442;7.016;2022-07-11T14:59:20;26.10;99.90
1429;DHT22;708;51.442;7.016;2022-07-11T15:01:47;26.30;99.90
1429;DHT22;708;51.442;7.016;2022-07-11T15:04:16;26.50;99.90
1429;DHT22;708;51.442;7.016;2022-07-11T15:06:43;26.70;99.90
1429;DHT22;708;51.442;7.016;2022-07-11T15:09:27;26.80;99.90
1429;DHT22;708;51.442;7.016;2022-07-11T15:12:12;27.10;99.90
1429;DHT22;708;51.442;7.016;2022-07-11T15:14:49;27.20;99.90
1429;DHT22;708;51.442;7.016;2022-07-11T15:17:17;27.10;99.90
1429;DHT22;708;51.442;7.016;2022-07-11T15:19:46;27.00;99.90
1429;DHT22;708;51.442;7.016;2022-07-11T15:22:13;26.90;99.90
1429;DHT22;708;51.442;7.016;2022-07-11T15:24:40;26.70;99.90
1429;DHT22;708;51.442;7.016;2022-07-11T15:27:07;26.70;99.90
1429;DHT22;708;51.442;7.016;2022-07-11T15:29:34;26.60;99.90
1429;DHT22;708;51.442;7.016;2022-07-11T15:32:01;26.60;99.90
1429;DHT22;708;51.442;7.016;2022-07-11T15:34:28;26.40;99.90
1429;DHT22;708;51.442;7.016;2022-07-11T15:36:56;26.40;99.90
1429;DHT22;708;51.442;7.016;2022-07-11T15:39:23;26.40;99.90
1429;DHT22;708;51.442;7.016;2022-07-11T15:41:50;26.40;99.90
1429;DHT22;708;51.442;7.016;2022-07-11T15:44:16;26.40;99.90
1429;DHT22;708;51.442;7.016;2022-07-11T15:46:43;26.10;99.90
1429;DHT22;708;51.442;7.016;2022-07-11T15:49:10;25.70;99.90
1429;DHT22;708;51.442;7.016;2022-07-11T15:51:37;25.50;99.90
1429;DHT22;708;51.442;7.016;2022-07-11T15:54:05;25.20;99.90
1429;DHT22;708;51.442;7.016;2022-07-11T15:56:35;25.30;99.90
1429;DHT22;708;51.442;7.016;2022-07-11T15:59:02;25.60;99.90
1429;DHT22;708;51.442;7.016;2022-07-11T16:01:29;26.00;99.90
1429;DHT22;708;51.442;7.016;2022-07-11T16:04:00;26.40;99.90
1429;DHT22;708;51.442;7.016;2022-07-11T16:06:28;26.90;99.90
1429;DHT22;708;51.442;7.016;2022-07-11T16:08:56;27.20;99.90
1429;DHT22;708;51.442;7.016;2022-07-11T16:11:25;27.60;99.90
1429;DHT22;708;51.442;7.016;2022-07-11T16:13:52;27.80;99.90
1429;DHT22;708;51.442;7.016;2022-07-11T16:16:20;28.10;99.90
1429;DHT22;708;51.442;7.016;2022-07-11T16:18:50;28.30;99.90
1429;DHT22;708;51.442;7.016;2022-07-11T16:21:18;28.40;99.90
1429;DHT22;708;51.442;7.016;2022-07-11T16:23:45;28.30;99.90
1429;DHT22;708;51.442;7.016;2022-07-11T16:26:12;28.50;99.40
1429;DHT22;708;51.442;7.016;2022-07-11T16:28:42;28.50;98.10
1429;DHT22;708;51.442;7.016;2022-07-11T16:31:10;28.40;98.60
1429;DHT22;708;51.442;7.016;2022-07-11T16:33:37;28.00;98.10
1429;DHT22;708;51.442;7.016;2022-07-11T16:36:04;27.50;99.90